Schluersburg, Missouri
Current Conditions -  °F | °C
As of 7:35 PM on Friday 24 Oct 2014 (Local Time) from KFYG Reporting Station
Overcast Overcast  
Wind Chill: 20°   Ceiling: 4600
Heat Index: 20°   Visibility: 10mi
Dew Point: 13°   Wind: 0mph
Humidity: 64%   Direction: NA
Pressure: 29.99"   Gusts: NA
Location:  38.6039°N, 90.8829°W
Report Text: KFYG 250035Z AUTO 00000KT 10SM OVC046 20/13 A2999 RMK AO2
Loading
Personal Weather Stations






























Interactive Weather Map
Tropical Storm Tracking
New forecast layout! Learn more

10-Day Weather Forecast

Advertisements
Track Severe Weather on mobile